This is the latest recevied weather packets stored in our database for station/object W8CEN. If no packets are shown the sender has not sent any weather packets the latest 10 day(s).
| Time | Temp. | Humidity | Pressure | Rain* | Wind** | Luminosity | Snow |
|---|---|---|---|---|---|---|---|
| 1777851939 | 12.78° C | 60% | 990.4 hPa | 0 mm | - | 28 W/m² | - |
| 1777851637 | 12.78° C | 59% | 990.2 hPa | 0 mm | - | 32 W/m² | - |
| 1777851333 | 13.89° C | 58% | 990.1 hPa | 0 mm | - | 47 W/m² | - |
| 1777851029 | 13.89° C | 57% | 990.2 hPa | 0 mm | - | 61 W/m² | - |
| 1777850726 | 13.89° C | 56% | 990.1 hPa | 0 mm | - | 63 W/m² | - |
| 1777850424 | 14.44° C | 54% | 989.9 hPa | 0 mm | - | 45 W/m² | - |
| 1777850122 | 14.44° C | 52% | 989.9 hPa | 0 mm | - | 47 W/m² | - |
| 1777849818 | 15° C | 51% | 989.9 hPa | 0 mm | - | 80 W/m² | - |
| 1777849514 | 15° C | 49% | 989.7 hPa | 0 mm | - | 96 W/m² | - |
| 1777849212 | 16.11° C | 42% | 989.8 hPa | 0 mm | - | 70 W/m² | - |
| 1777848909 | 16.11° C | 38% | 989.7 hPa | 0 mm | - | 113 W/m² | - |
| 1777848604 | 16.67° C | 36% | 989.7 hPa | 0 mm | - | 81 W/m² | - |
| 1777848301 | 16.67° C | 35% | 989.9 hPa | 0 mm | - | 192 W/m² | - |
| 1777847999 | 16.67° C | 36% | 989.8 hPa | 0 mm | - | 202 W/m² | - |
| 1777847697 | 16.67° C | 37% | 989.8 hPa | 0 mm | - | 126 W/m² | - |
| 1777847392 | 16.67° C | 37% | 989.9 hPa | 0 mm | - | 153 W/m² | - |
| 1777847091 | 16.67° C | 35% | 989.7 hPa | 0 mm | - | 254 W/m² | - |
| 1777846789 | 16.67° C | 36% | 989.8 hPa | 0 mm | - | 112 W/m² | - |
| 1777846487 | 16.67° C | 37% | 989.9 hPa | 0 mm | - | 312 W/m² | - |
| 1777846183 | 16.67° C | 36% | 989.8 hPa | 0 mm | - | 303 W/m² | - |
| 1777845879 | 16.67° C | 36% | 989.9 hPa | 0 mm | - | 140 W/m² | - |
| 1777845577 | 17.22° C | 35% | 990 hPa | 0 mm | - | 365 W/m² | - |
| 1777845273 | 17.22° C | 35% | 989.8 hPa | 0 mm | - | 375 W/m² | - |
| 1777844971 | 17.22° C | 34% | 989.9 hPa | 0 mm | - | 413 W/m² | - |
| 1777844669 | 17.22° C | 34% | 990.1 hPa | 0 mm | - | 406 W/m² | - |
* Rain latest hour (hover to see other rain measurements)
** Current wind speed in m/s (hover to see current wind gust speed)